createdAt,value
2018-03-24T00:04:39.595Z,10.40
2018-03-24T00:09:43.469Z,9.70
2018-03-24T00:14:47.693Z,10.77
2018-03-24T00:19:50.803Z,10.93
2018-03-24T00:24:54.298Z,11.60
2018-03-24T00:29:57.792Z,10.40
2018-03-24T00:35:01.279Z,11.50
2018-03-24T00:40:05.978Z,12.43
2018-03-24T00:45:10.400Z,12.90
2018-03-24T00:50:13.507Z,13.57
2018-03-24T00:55:17.361Z,14.73
2018-03-24T01:00:21.877Z,14.73
2018-03-24T01:05:24.961Z,15.23
2018-03-24T01:10:29.410Z,15.00
2018-03-24T01:15:32.909Z,16.70
2018-03-24T01:20:37.370Z,17.27
2018-03-24T01:25:41.242Z,16.90
2018-03-24T01:30:44.328Z,16.67
2018-03-24T01:35:48.570Z,16.60
2018-03-24T01:40:51.664Z,18.13
2018-03-24T01:45:56.489Z,19.60
2018-03-24T01:51:00.737Z,18.67
2018-03-24T01:56:03.810Z,19.33
2018-03-24T02:01:08.025Z,18.47
2018-03-24T02:06:11.120Z,18.77
2018-03-24T02:11:14.235Z,20.50
2018-03-24T02:16:17.343Z,19.17
2018-03-24T02:21:23.878Z,20.40
2018-03-24T02:26:27.725Z,19.17
2018-03-24T02:31:31.253Z,19.33
2018-03-24T02:36:35.730Z,19.73
2018-03-24T02:41:40.257Z,18.70
2018-03-24T02:46:43.355Z,19.27
2018-03-24T02:51:47.794Z,18.27
2018-03-24T02:56:53.195Z,18.30
2018-03-24T03:01:57.071Z,17.97
2018-03-24T03:07:00.160Z,18.60
2018-03-24T03:12:03.267Z,16.90
2018-03-24T03:17:07.120Z,17.97
2018-03-24T03:22:10.208Z,17.57
2018-03-24T03:27:13.297Z,18.40
2018-03-24T03:32:20.133Z,18.13
2018-03-24T03:37:23.437Z,18.07
2018-03-24T03:42:27.312Z,18.30
2018-03-24T03:47:30.414Z,18.47
2018-03-24T03:52:34.249Z,17.63
2018-03-24T03:57:38.681Z,18.03
2018-03-24T04:02:41.770Z,19.03
2018-03-24T04:07:46.247Z,19.00
2018-03-24T04:12:50.696Z,19.30
2018-03-24T04:17:54.554Z,18.20
2018-03-24T04:22:58.427Z,17.37
2018-03-24T04:28:02.657Z,18.37
2018-03-24T04:33:07.696Z,19.27
2018-03-24T04:38:11.948Z,18.87
2018-03-24T04:43:15.061Z,19.37
2018-03-24T04:48:18.921Z,18.73
2018-03-24T04:53:22.022Z,18.53
2018-03-24T04:58:25.878Z,18.80
2018-03-24T05:03:29.348Z,16.73
2018-03-24T05:08:33.799Z,16.77
2018-03-24T05:13:36.882Z,18.80
2018-03-24T05:18:40.749Z,18.95
2018-03-24T05:23:43.846Z,19.67
2018-03-24T05:28:46.976Z,18.87
2018-03-24T05:33:50.122Z,18.80
2018-03-24T05:38:53.202Z,20.57
2018-03-24T05:43:57.820Z,19.47
2018-03-24T05:49:02.424Z,18.27
2018-03-24T05:54:06.665Z,18.37
2018-03-24T05:59:10.610Z,19.70
2018-03-24T06:04:13.712Z,19.50
2018-03-24T06:09:18.155Z,18.60
2018-03-24T06:14:21.251Z,19.30
2018-03-24T06:19:25.837Z,19.23
2018-03-24T06:24:30.305Z,18.43
2018-03-24T06:29:33.848Z,17.73
2018-03-24T06:34:37.929Z,16.77
2018-03-24T06:39:41.845Z,18.27
2018-03-24T06:44:44.956Z,18.17
2018-03-24T06:49:48.867Z,16.90
2018-03-24T06:54:52.984Z,18.17
2018-03-24T06:59:56.546Z,17.87
2018-03-24T07:05:00.848Z,19.30
2018-03-24T07:10:04.774Z,20.40
2018-03-24T07:15:07.939Z,20.97
2018-03-24T07:20:11.049Z,20.37
2018-03-24T07:25:14.913Z,20.98
2018-03-24T07:30:18.003Z,19.87
2018-03-24T07:35:21.851Z,19.97
2018-03-24T07:40:26.079Z,19.87
2018-03-24T07:45:29.193Z,19.77
2018-03-24T07:50:32.317Z,19.50
2018-03-24T07:55:35.423Z,19.50
2018-03-24T08:00:39.873Z,19.30
2018-03-24T08:05:44.126Z,20.30
2018-03-24T08:10:48.588Z,19.58
2018-03-24T08:15:52.080Z,18.77
2018-03-24T08:20:55.580Z,19.53
2018-03-24T08:25:59.076Z,18.83
2018-03-24T08:31:02.178Z,18.77
2018-03-24T08:36:05.268Z,18.23
2018-03-24T08:41:09.145Z,17.47
2018-03-24T08:46:14.504Z,18.00
2018-03-24T08:51:18.756Z,17.73
2018-03-24T08:56:22.626Z,17.03
2018-03-24T09:01:25.729Z,18.07
2018-03-24T09:06:28.829Z,17.90
2018-03-24T09:11:31.921Z,18.00
2018-03-24T09:16:35.065Z,17.73
2018-03-24T09:21:39.513Z,17.23
2018-03-24T09:26:43.956Z,16.97
2018-03-24T09:31:48.192Z,18.70
2018-03-24T09:36:51.704Z,16.77
2018-03-24T09:41:54.802Z,15.20
2018-03-24T09:46:59.250Z,16.50
2018-03-24T09:52:03.705Z,15.97
2018-03-24T09:57:07.564Z,16.30
2018-03-24T10:02:12.009Z,14.93
2018-03-24T10:07:15.877Z,14.50
2018-03-24T10:12:19.382Z,14.47
2018-03-24T10:17:23.617Z,15.17
2018-03-24T10:28:10.481Z,13.03
2018-03-24T10:33:13.561Z,13.97
2018-03-24T10:38:16.648Z,9.70
2018-03-24T10:43:26.102Z,10.00
2018-03-24T10:48:30.548Z,7.95
2018-03-24T10:53:34.822Z,11.87
2018-03-24T10:58:39.411Z,9.17
2018-03-24T11:03:42.908Z,8.50
2018-03-24T11:08:46.780Z,10.80
2018-03-24T11:13:49.880Z,9.70
2018-03-24T11:18:54.361Z,11.13
2018-03-24T11:23:58.824Z,10.00
2018-03-24T11:29:02.332Z,10.20
2018-03-24T11:34:05.445Z,11.00
2018-03-24T11:39:08.554Z,11.13
2018-03-24T11:44:11.666Z,10.80
2018-03-24T11:49:14.764Z,9.87
2018-03-24T11:54:31.077Z,9.97
2018-03-24T11:59:34.174Z,9.70
2018-03-24T12:04:38.617Z,10.03
2018-03-24T12:09:43.223Z,9.83
2018-03-24T12:14:46.317Z,10.45
2018-03-24T12:19:50.768Z,10.33
2018-03-24T12:24:54.271Z,10.40
2018-03-24T12:29:58.711Z,10.13
2018-03-24T12:35:02.936Z,10.13
2018-03-24T12:40:06.790Z,10.03
2018-03-24T12:45:11.020Z,10.23
2018-03-24T12:50:14.124Z,8.63
2018-03-24T12:55:17.209Z,8.30
2018-03-24T13:00:21.452Z,9.43
2018-03-24T13:05:25.892Z,9.93
2018-03-24T13:10:30.490Z,8.97
2018-03-24T13:15:33.981Z,8.90
2018-03-24T13:20:37.078Z,8.40
2018-03-24T13:25:40.574Z,7.97
2018-03-24T13:30:44.411Z,8.03
2018-03-24T13:35:48.272Z,8.93
2018-03-24T13:40:52.112Z,9.70
2018-03-24T13:45:55.212Z,9.03
2018-03-24T13:50:58.700Z,8.80
2018-03-24T13:56:02.564Z,8.90
2018-03-24T14:01:07.160Z,8.77
2018-03-24T14:06:11.604Z,8.97
2018-03-24T14:11:15.464Z,10.33
2018-03-24T14:16:18.549Z,9.40
2018-03-24T14:21:22.776Z,9.50
2018-03-24T14:26:27.013Z,8.20
2018-03-24T14:31:31.607Z,8.53
2018-03-24T14:36:34.710Z,8.53
2018-03-24T14:41:39.144Z,8.27
2018-03-24T14:46:43.009Z,7.83
2018-03-24T14:51:46.497Z,7.43
2018-03-24T14:56:50.353Z,7.43
2018-03-24T15:01:53.843Z,7.17
2018-03-24T15:06:56.929Z,7.83
2018-03-24T15:12:01.359Z,6.80
2018-03-24T15:17:05.960Z,7.63
2018-03-24T15:22:10.395Z,7.70
2018-03-24T15:27:13.879Z,7.12
2018-03-24T15:32:34.763Z,7.73
2018-03-24T15:37:37.831Z,7.40
2018-03-24T15:42:41.306Z,8.00
2018-03-24T15:47:45.175Z,8.93
2018-03-24T15:52:49.612Z,8.30
2018-03-24T15:57:54.060Z,8.93
2018-03-24T16:02:57.909Z,8.47
2018-03-24T16:08:02.141Z,8.60
2018-03-24T16:13:06.568Z,8.20
2018-03-24T16:18:10.999Z,9.07
2018-03-24T16:23:14.098Z,8.83
2018-03-24T16:28:17.957Z,8.33
2018-03-24T16:33:21.459Z,8.33
2018-03-24T16:38:25.896Z,8.05
2018-03-24T16:43:28.984Z,8.67
2018-03-24T16:48:33.589Z,8.37
2018-03-24T16:53:36.670Z,7.97
2018-03-24T16:58:41.267Z,8.77
2018-03-24T17:03:45.697Z,9.33
2018-03-24T17:08:49.190Z,9.20
2018-03-24T17:13:52.282Z,8.20
2018-03-24T17:18:56.964Z,8.60
2018-03-24T17:24:00.447Z,8.60
2018-03-24T17:29:03.540Z,9.30
2018-03-24T17:34:07.979Z,9.07
2018-03-24T17:39:11.844Z,9.23
2018-03-24T17:44:14.940Z,8.37
2018-03-24T17:49:19.160Z,8.70
2018-03-24T17:54:22.648Z,8.83
2018-03-24T17:59:25.753Z,9.33
2018-03-24T18:04:28.841Z,8.70
2018-03-24T18:09:32.668Z,8.10
2018-03-24T18:14:36.137Z,8.43
2018-03-24T18:19:40.555Z,8.93
2018-03-24T18:24:43.640Z,8.97
2018-03-24T18:29:46.716Z,9.17
2018-03-24T18:34:50.708Z,9.13
2018-03-24T18:39:55.124Z,10.25
2018-03-24T18:44:58.245Z,11.00
2018-03-24T18:50:02.694Z,10.53
2018-03-24T18:55:06.176Z,11.27
2018-03-24T19:00:09.672Z,11.13
2018-03-24T19:05:13.904Z,11.32
2018-03-24T19:10:17.382Z,11.17
2018-03-24T19:15:21.822Z,11.27
2018-03-24T19:20:24.912Z,11.97
2018-03-24T19:25:29.508Z,12.87
2018-03-24T19:30:32.982Z,12.13
2018-03-24T19:35:37.427Z,11.93
2018-03-24T19:40:41.876Z,11.53
2018-03-24T19:45:46.102Z,11.60
2018-03-24T19:50:50.541Z,11.17
2018-03-24T19:55:54.012Z,11.12
2018-03-24T20:00:57.096Z,11.73
2018-03-24T20:06:01.544Z,12.33
2018-03-24T20:11:05.036Z,11.70
2018-03-24T20:16:09.469Z,11.77
2018-03-24T20:21:12.555Z,12.43
2018-03-24T20:26:15.648Z,12.13
2018-03-24T20:31:18.724Z,12.27
2018-03-24T20:36:22.576Z,12.88
2018-03-24T20:41:25.660Z,12.77
2018-03-24T20:46:28.752Z,12.27
2018-03-24T20:51:32.986Z,13.27
2018-03-24T20:56:37.434Z,13.63
2018-03-24T21:01:41.299Z,13.00
2018-03-24T21:06:45.800Z,13.10
2018-03-24T21:11:50.227Z,12.60
2018-03-24T21:16:54.649Z,12.30
2018-03-24T21:21:57.722Z,13.40
2018-03-24T21:27:01.192Z,12.17
2018-03-24T21:32:05.649Z,12.53
2018-03-24T21:37:10.073Z,12.50
2018-03-24T21:42:14.294Z,12.43
2018-03-24T21:47:18.523Z,12.03
2018-03-24T21:52:23.492Z,13.07
2018-03-24T21:57:27.939Z,12.27
2018-03-24T22:02:32.529Z,12.73
2018-03-24T22:07:35.629Z,11.20
2018-03-24T22:12:38.713Z,14.20
2018-03-24T22:17:42.187Z,14.30
2018-03-24T22:22:46.053Z,13.50
2018-03-24T22:27:50.530Z,14.10
2018-03-24T22:32:54.388Z,15.37
2018-03-24T22:37:58.240Z,13.83
2018-03-24T22:43:01.339Z,14.63
2018-03-24T22:48:05.475Z,13.73
2018-03-24T22:53:09.328Z,14.50
2018-03-24T22:58:13.763Z,16.10
2018-03-24T23:03:17.604Z,14.77
2018-03-24T23:08:20.677Z,16.70
2018-03-24T23:13:25.119Z,14.23
2018-03-24T23:18:28.763Z,14.43
2018-03-24T23:23:32.603Z,15.93
2018-03-24T23:28:36.074Z,15.47
2018-03-24T23:33:39.194Z,14.43
2018-03-24T23:38:42.260Z,15.70
2018-03-24T23:43:46.095Z,15.27
2018-03-24T23:48:50.700Z,15.87
2018-03-24T23:53:54.164Z,16.50
2018-03-24T23:58:57.249Z,15.57
